createdAt,value
2018-07-20T00:00:59.099Z,20.70
2018-07-20T00:01:59.146Z,20.73
2018-07-20T00:02:59.081Z,20.70
2018-07-20T00:03:59.099Z,20.74
2018-07-20T00:04:59.108Z,20.79
2018-07-20T00:05:59.201Z,20.80
2018-07-20T00:06:59.101Z,20.82
2018-07-20T00:07:59.809Z,20.89
2018-07-20T00:08:59.119Z,20.89
2018-07-20T00:09:59.097Z,20.88
2018-07-20T00:10:59.109Z,20.87
2018-07-20T00:11:59.098Z,20.92
2018-07-20T00:12:59.141Z,20.95
2018-07-20T00:13:59.162Z,20.85
2018-07-20T00:14:59.183Z,20.73
2018-07-20T00:15:59.157Z,20.88
2018-07-20T00:16:59.148Z,20.92
2018-07-20T00:17:59.120Z,20.89
2018-07-20T00:18:59.210Z,20.84
2018-07-20T00:19:59.192Z,20.80
2018-07-20T00:20:59.157Z,20.92
2018-07-20T00:21:59.201Z,20.85
2018-07-20T00:22:59.137Z,20.82
2018-07-20T00:23:59.179Z,20.84
2018-07-20T00:24:59.162Z,20.84
2018-07-20T00:25:59.167Z,20.84
2018-07-20T00:26:59.189Z,20.84
2018-07-20T00:27:59.167Z,20.89
2018-07-20T00:28:59.154Z,20.84
2018-07-20T00:29:59.215Z,20.94
2018-07-20T00:30:59.186Z,20.89
2018-07-20T00:31:59.176Z,20.97
2018-07-20T00:32:59.205Z,20.94
2018-07-20T00:33:59.186Z,20.99
2018-07-20T00:34:59.213Z,20.99
2018-07-20T00:35:59.203Z,20.98
2018-07-20T00:36:59.230Z,20.95
2018-07-20T00:37:59.186Z,20.95
2018-07-20T00:38:59.216Z,20.87
2018-07-20T00:39:59.234Z,21.07
2018-07-20T00:40:59.205Z,21.03
2018-07-20T00:41:59.239Z,20.98
2018-07-20T00:42:59.192Z,20.95
2018-07-20T00:43:59.348Z,20.99
2018-07-20T00:44:59.206Z,20.97
2018-07-20T00:45:59.210Z,21.03
2018-07-20T00:46:59.230Z,20.95
2018-07-20T00:47:59.296Z,20.95
2018-07-20T00:48:59.222Z,20.92
2018-07-20T00:49:59.223Z,20.84
2018-07-20T00:50:59.225Z,20.85
2018-07-20T00:51:59.240Z,20.87
2018-07-20T00:52:59.225Z,20.80
2018-07-20T00:53:59.308Z,20.88
2018-07-20T00:54:59.277Z,20.82
2018-07-20T00:55:59.235Z,20.69
2018-07-20T00:56:59.246Z,20.79
2018-07-20T00:57:59.284Z,20.82
2018-07-20T00:58:59.282Z,20.72
2018-07-20T00:59:59.249Z,20.73
2018-07-20T01:00:59.286Z,20.72
2018-07-20T01:01:59.823Z,20.64
2018-07-20T01:02:59.265Z,20.67
2018-07-20T01:03:59.279Z,20.57
2018-07-20T01:04:59.275Z,20.52
2018-07-20T01:05:59.286Z,20.48
2018-07-20T01:06:59.268Z,20.47
2018-07-20T01:07:59.279Z,20.42
2018-07-20T01:08:59.276Z,20.38
2018-07-20T01:09:59.274Z,20.38
2018-07-20T01:10:59.306Z,20.38
2018-07-20T01:11:59.287Z,20.42
2018-07-20T01:12:59.298Z,20.31
2018-07-20T01:13:59.298Z,20.24
2018-07-20T01:14:59.302Z,20.23
2018-07-20T01:15:59.302Z,20.24
2018-07-20T01:16:59.354Z,20.24
2018-07-20T01:17:59.314Z,20.20
2018-07-20T01:18:59.306Z,20.28
2018-07-20T01:19:59.337Z,20.32
2018-07-20T01:20:59.338Z,20.14
2018-07-20T01:21:59.334Z,20.18
2018-07-20T01:22:59.337Z,20.13
2018-07-20T01:23:59.360Z,20.13
2018-07-20T01:24:59.326Z,20.17
2018-07-20T01:25:59.343Z,20.14
2018-07-20T01:26:59.365Z,20.11
2018-07-20T01:27:59.358Z,20.11
2018-07-20T01:28:59.354Z,20.14
2018-07-20T01:29:59.350Z,20.18
2018-07-20T01:30:59.367Z,20.10
2018-07-20T01:31:59.356Z,20.14
2018-07-20T01:32:59.380Z,20.08
2018-07-20T01:33:59.349Z,20.11
2018-07-20T01:34:59.395Z,20.11
2018-07-20T01:35:59.383Z,20.05
2018-07-20T01:36:59.392Z,19.99
2018-07-20T01:37:59.425Z,20.05
2018-07-20T01:38:59.365Z,19.95
2018-07-20T01:39:59.374Z,19.96
2018-07-20T01:40:59.381Z,20.03
2018-07-20T01:41:59.417Z,19.91
2018-07-20T01:43:00.339Z,19.95
2018-07-20T01:43:59.400Z,19.88
2018-07-20T01:44:59.411Z,19.92
2018-07-20T01:45:59.407Z,19.92
2018-07-20T01:46:59.411Z,19.91
2018-07-20T01:47:59.387Z,19.87
2018-07-20T01:48:59.403Z,19.88
2018-07-20T01:49:59.402Z,19.84
2018-07-20T01:50:59.437Z,19.87
2018-07-20T01:51:59.400Z,19.83
2018-07-20T01:52:59.435Z,19.84
2018-07-20T01:53:59.458Z,19.84
2018-07-20T01:54:59.428Z,19.81
2018-07-20T01:55:59.519Z,19.81
2018-07-20T01:56:59.446Z,19.84
2018-07-20T01:57:59.461Z,19.87
2018-07-20T01:58:59.453Z,19.86
2018-07-20T01:59:59.467Z,19.81
2018-07-20T02:00:59.457Z,19.66
2018-07-20T02:01:59.479Z,19.71
2018-07-20T02:02:59.457Z,19.76
2018-07-20T02:03:59.453Z,19.78
2018-07-20T02:04:59.455Z,19.81
2018-07-20T02:05:59.462Z,19.71
2018-07-20T02:06:59.457Z,19.66
2018-07-20T02:07:59.456Z,19.62
2018-07-20T02:08:59.527Z,19.69
2018-07-20T02:09:59.461Z,19.69
2018-07-20T02:10:59.463Z,19.77
2018-07-20T02:11:59.485Z,19.66
2018-07-20T02:12:59.485Z,19.56
2018-07-20T02:13:59.467Z,19.65
2018-07-20T02:14:59.469Z,19.56
2018-07-20T02:15:59.471Z,19.55
2018-07-20T02:16:59.476Z,19.48
2018-07-20T02:17:59.476Z,19.51
2018-07-20T02:18:59.478Z,19.56
2018-07-20T02:19:59.504Z,19.48
2018-07-20T02:20:59.524Z,19.59
2018-07-20T02:21:59.587Z,19.43
2018-07-20T02:22:59.541Z,19.48
2018-07-20T02:23:59.523Z,19.51
2018-07-20T02:24:59.504Z,19.43
2018-07-20T02:25:59.500Z,19.54
2018-07-20T02:26:59.519Z,19.50
2018-07-20T02:27:59.552Z,19.46
2018-07-20T02:28:59.509Z,19.58
2018-07-20T02:29:59.509Z,19.54
2018-07-20T02:30:59.511Z,19.39
2018-07-20T02:31:59.520Z,19.32
2018-07-20T02:32:59.520Z,19.46
2018-07-20T02:33:59.529Z,19.40
2018-07-20T02:34:59.549Z,19.37
2018-07-20T02:35:59.533Z,19.31
2018-07-20T02:36:59.709Z,19.50
2018-07-20T02:37:59.533Z,19.54
2018-07-20T02:38:59.541Z,19.40
2018-07-20T02:39:59.558Z,19.40
2018-07-20T02:41:01.461Z,19.41
2018-07-20T02:41:59.620Z,19.44
2018-07-20T02:42:59.545Z,19.41
2018-07-20T02:43:59.548Z,19.29
2018-07-20T02:44:59.557Z,19.28
2018-07-20T02:45:59.549Z,19.31
2018-07-20T02:46:59.573Z,19.26
2018-07-20T02:47:59.566Z,19.26
2018-07-20T02:48:59.568Z,19.28
2018-07-20T02:49:59.642Z,19.29
2018-07-20T02:51:00.362Z,19.29
2018-07-20T02:51:59.595Z,19.25
2018-07-20T02:52:59.591Z,19.28
2018-07-20T02:53:59.602Z,19.19
2018-07-20T02:54:59.577Z,19.23
2018-07-20T02:55:59.590Z,19.11
2018-07-20T02:56:59.642Z,19.22
2018-07-20T02:57:59.596Z,19.18
2018-07-20T02:58:59.632Z,19.16
2018-07-20T02:59:59.595Z,19.18
2018-07-20T03:00:59.629Z,19.19
2018-07-20T03:01:59.622Z,19.11
2018-07-20T03:02:59.593Z,19.10
2018-07-20T03:03:59.605Z,19.22
2018-07-20T03:04:59.600Z,19.06
2018-07-20T03:05:59.632Z,19.08
2018-07-20T03:06:59.621Z,19.08
2018-07-20T03:07:59.673Z,19.07
2018-07-20T03:08:59.774Z,18.99
2018-07-20T03:09:59.649Z,19.02
2018-07-20T03:10:59.625Z,18.99
2018-07-20T03:11:59.658Z,18.95
2018-07-20T03:12:59.630Z,18.98
2018-07-20T03:13:59.640Z,18.99
2018-07-20T03:14:59.645Z,18.91
2018-07-20T03:15:59.693Z,18.90
2018-07-20T03:16:59.669Z,18.94
2018-07-20T03:17:59.639Z,18.82
2018-07-20T03:18:59.646Z,18.88
2018-07-20T03:19:59.678Z,18.81
2018-07-20T03:20:59.692Z,18.85
2018-07-20T03:21:59.646Z,18.90
2018-07-20T03:22:59.658Z,18.87
2018-07-20T03:23:59.659Z,18.81
2018-07-20T03:24:59.670Z,18.87
2018-07-20T03:25:59.707Z,18.76
2018-07-20T03:26:59.665Z,18.80
2018-07-20T03:27:59.670Z,18.81
2018-07-20T03:28:59.679Z,18.70
2018-07-20T03:29:59.691Z,18.76
2018-07-20T03:30:59.786Z,18.67
2018-07-20T03:31:59.676Z,18.66
2018-07-20T03:32:59.789Z,18.69
2018-07-20T03:33:59.718Z,18.66
2018-07-20T03:34:59.690Z,18.67
2018-07-20T03:35:59.689Z,18.67
2018-07-20T03:36:59.692Z,18.67
2018-07-20T03:37:59.730Z,18.70
2018-07-20T03:38:59.695Z,18.73
2018-07-20T03:39:59.726Z,18.65
2018-07-20T03:40:59.731Z,18.73
2018-07-20T03:41:59.725Z,18.67
2018-07-20T03:42:59.713Z,18.69
2018-07-20T03:43:59.847Z,18.69
2018-07-20T03:44:59.744Z,18.73
2018-07-20T03:45:59.723Z,18.70
2018-07-20T03:46:59.724Z,18.60
2018-07-20T03:47:59.709Z,18.62
2018-07-20T03:48:59.816Z,18.67
2018-07-20T03:49:59.734Z,18.67
2018-07-20T03:50:59.783Z,18.60
2018-07-20T03:52:01.465Z,18.60
2018-07-20T03:52:59.791Z,18.70
2018-07-20T03:54:00.391Z,18.50
2018-07-20T03:54:59.774Z,18.62
2018-07-20T03:55:59.768Z,18.52
2018-07-20T03:56:59.797Z,18.58
2018-07-20T03:57:59.747Z,18.51
2018-07-20T03:58:59.759Z,18.51
2018-07-20T03:59:59.764Z,18.55
2018-07-20T04:01:08.747Z,18.45
2018-07-20T04:02:53.245Z,18.41
2018-07-20T04:03:54.784Z,18.42
2018-07-20T04:04:53.350Z,18.42
2018-07-20T04:05:53.216Z,18.42
2018-07-20T04:06:53.163Z,18.48
2018-07-20T04:07:53.185Z,18.51
2018-07-20T04:08:53.171Z,18.48
2018-07-20T04:09:53.226Z,18.50
2018-07-20T04:10:53.181Z,18.58
2018-07-20T04:11:53.186Z,18.45
2018-07-20T04:12:53.193Z,18.44
2018-07-20T04:13:53.338Z,18.51
2018-07-20T04:14:53.226Z,18.55
2018-07-20T04:15:53.193Z,18.55
2018-07-20T04:16:53.207Z,18.52
2018-07-20T04:17:53.216Z,18.54
2018-07-20T04:18:53.216Z,18.57
2018-07-20T04:19:53.224Z,18.57
2018-07-20T04:20:53.200Z,18.52
2018-07-20T04:21:53.247Z,18.75
2018-07-20T04:22:53.231Z,18.73
2018-07-20T04:23:53.220Z,18.73
2018-07-20T04:24:53.233Z,18.88
2018-07-20T04:25:53.279Z,18.87
2018-07-20T04:26:53.255Z,18.88
2018-07-20T04:27:53.250Z,18.81
2018-07-20T04:28:53.241Z,18.84
2018-07-20T04:29:53.265Z,18.92
2018-07-20T04:30:53.233Z,18.98
2018-07-20T04:31:53.250Z,18.98
2018-07-20T04:32:53.243Z,18.90
2018-07-20T04:33:53.264Z,19.00
2018-07-20T04:34:53.295Z,18.87
2018-07-20T04:35:53.249Z,18.85
2018-07-20T04:36:53.267Z,18.84
2018-07-20T04:37:53.302Z,18.84
2018-07-20T04:38:53.295Z,18.85
2018-07-20T04:39:53.306Z,18.82
2018-07-20T04:40:53.300Z,18.82
2018-07-20T04:41:53.268Z,18.82
2018-07-20T04:42:53.254Z,18.98
2018-07-20T04:43:53.323Z,19.14
2018-07-20T04:44:53.267Z,19.00
2018-07-20T04:45:53.271Z,18.82
2018-07-20T04:46:53.306Z,18.94
2018-07-20T04:47:53.331Z,18.87
2018-07-20T04:48:53.300Z,18.85
2018-07-20T04:49:53.357Z,18.95
2018-07-20T04:50:53.321Z,18.94
2018-07-20T04:51:53.330Z,19.07
2018-07-20T04:52:53.349Z,19.07
2018-07-20T04:53:53.319Z,19.16
2018-07-20T04:54:53.337Z,19.28
2018-07-20T04:55:53.298Z,19.26
2018-07-20T04:56:53.301Z,19.13
2018-07-20T04:57:53.335Z,19.11
2018-07-20T04:58:53.378Z,19.19
2018-07-20T04:59:53.366Z,19.14
2018-07-20T05:00:53.314Z,19.21
2018-07-20T05:01:53.324Z,19.21
2018-07-20T05:02:53.338Z,19.28
2018-07-20T05:03:53.318Z,19.54
2018-07-20T05:04:53.321Z,19.48
2018-07-20T05:05:53.409Z,19.61
2018-07-20T05:06:53.329Z,19.71
2018-07-20T05:07:53.339Z,19.77
2018-07-20T05:08:53.326Z,19.81
2018-07-20T05:09:53.341Z,19.88
2018-07-20T05:10:53.337Z,19.86
2018-07-20T05:11:53.361Z,19.83
2018-07-20T05:12:53.363Z,19.94
2018-07-20T05:13:53.353Z,19.92
2018-07-20T05:14:53.366Z,19.98
2018-07-20T05:15:53.369Z,20.10
2018-07-20T05:16:53.376Z,20.10
2018-07-20T05:17:53.363Z,20.20
2018-07-20T05:18:53.360Z,20.02
2018-07-20T05:19:53.377Z,20.06
2018-07-20T05:20:53.512Z,20.08
2018-07-20T05:21:53.372Z,20.08
2018-07-20T05:22:53.379Z,19.96
2018-07-20T05:23:53.391Z,20.14
2018-07-20T05:24:53.401Z,20.14
2018-07-20T05:25:53.384Z,20.14
2018-07-20T05:26:53.428Z,20.11
2018-07-20T05:27:53.414Z,20.13
2018-07-20T05:28:53.392Z,20.23
2018-07-20T05:29:53.388Z,20.35
2018-07-20T05:30:53.409Z,20.39
2018-07-20T05:31:53.395Z,20.54
2018-07-20T05:32:53.408Z,20.66
2018-07-20T05:33:53.417Z,20.62
2018-07-20T05:34:53.423Z,20.98
2018-07-20T05:35:53.413Z,21.46
2018-07-20T05:36:53.409Z,21.44
2018-07-20T05:37:53.428Z,21.86
2018-07-20T05:38:53.441Z,21.88
2018-07-20T05:39:53.430Z,21.49
2018-07-20T05:40:53.427Z,21.61
2018-07-20T05:41:53.433Z,22.36
2018-07-20T05:42:53.501Z,23.33
2018-07-20T05:43:53.508Z,24.00
2018-07-20T05:44:53.465Z,24.46
2018-07-20T05:45:53.503Z,24.85
2018-07-20T05:46:53.459Z,25.09
2018-07-20T05:47:53.478Z,25.32
2018-07-20T05:48:53.491Z,25.77
2018-07-20T05:49:53.475Z,25.62
2018-07-20T05:50:53.475Z,25.65
2018-07-20T05:51:53.472Z,25.76
2018-07-20T05:52:53.522Z,25.92
2018-07-20T05:53:53.473Z,25.83
2018-07-20T05:54:53.484Z,25.42
2018-07-20T05:55:53.487Z,25.77
2018-07-20T05:56:53.487Z,25.92
2018-07-20T05:57:53.491Z,26.43
2018-07-20T05:58:53.496Z,26.36
2018-07-20T05:59:53.507Z,26.37
2018-07-20T06:00:53.531Z,26.48
2018-07-20T06:01:53.528Z,26.63
2018-07-20T06:02:53.513Z,26.99
2018-07-20T06:03:53.529Z,27.03
2018-07-20T06:04:53.527Z,26.76
2018-07-20T06:05:53.548Z,26.50
2018-07-20T06:06:53.561Z,26.51
2018-07-20T06:07:53.546Z,26.54
2018-07-20T06:08:53.578Z,25.95
2018-07-20T06:09:53.606Z,25.94
2018-07-20T06:10:53.580Z,26.29
2018-07-20T06:11:53.633Z,26.09
2018-07-20T06:12:53.589Z,25.97
2018-07-20T06:13:53.612Z,26.18
2018-07-20T06:14:53.600Z,26.55
2018-07-20T06:15:53.594Z,26.51
2018-07-20T06:16:53.595Z,25.77
2018-07-20T06:17:53.638Z,25.13
2018-07-20T06:18:53.630Z,25.36
2018-07-20T06:19:53.636Z,25.76
2018-07-20T06:20:53.661Z,26.40
2018-07-20T06:21:53.629Z,26.30
2018-07-20T06:22:53.647Z,26.77
2018-07-20T06:23:53.749Z,27.02
2018-07-20T06:24:53.681Z,27.49
2018-07-20T06:25:53.656Z,27.94
2018-07-20T06:26:53.692Z,28.51
2018-07-20T06:27:53.675Z,27.79
2018-07-20T06:28:53.676Z,27.93
2018-07-20T06:29:53.689Z,27.65
2018-07-20T06:30:53.710Z,27.67
2018-07-20T06:31:53.735Z,27.06
2018-07-20T06:32:53.742Z,27.41
2018-07-20T06:33:53.718Z,27.82
2018-07-20T06:34:53.828Z,28.18
2018-07-20T06:35:53.779Z,27.93
2018-07-20T06:36:53.752Z,27.57
2018-07-20T06:37:53.755Z,26.89
2018-07-20T06:38:53.769Z,26.44
2018-07-20T06:39:53.767Z,25.85
2018-07-20T06:40:53.813Z,25.28
2018-07-20T06:41:53.783Z,25.18
2018-07-20T06:42:53.804Z,25.88
2018-07-20T06:43:53.827Z,26.72
2018-07-20T06:44:53.816Z,27.72
2018-07-20T06:45:53.846Z,27.46
2018-07-20T06:46:53.832Z,27.34
2018-07-20T06:47:53.869Z,26.94
2018-07-20T06:48:53.854Z,26.51
2018-07-20T06:49:53.963Z,26.60
2018-07-20T06:50:53.867Z,26.09
2018-07-20T06:51:53.906Z,26.23
2018-07-20T06:52:53.893Z,26.32
2018-07-20T06:53:53.929Z,26.51
2018-07-20T06:54:53.888Z,26.35
2018-07-20T06:55:54.036Z,25.83
2018-07-20T06:56:53.925Z,26.25
2018-07-20T06:57:53.946Z,26.43
2018-07-20T06:58:53.949Z,26.39
2018-07-20T06:59:53.942Z,26.30
2018-07-20T07:00:53.977Z,27.39
2018-07-20T07:01:53.987Z,27.57
2018-07-20T07:02:53.958Z,28.39
2018-07-20T07:03:53.977Z,28.71
2018-07-20T07:04:53.982Z,29.19
2018-07-20T07:05:53.997Z,29.48
2018-07-20T07:06:54.020Z,29.49
2018-07-20T07:07:54.004Z,28.48
2018-07-20T07:08:54.027Z,28.89
2018-07-20T07:09:54.012Z,29.06
2018-07-20T07:10:54.024Z,29.21
2018-07-20T07:11:54.060Z,29.37
2018-07-20T07:12:54.120Z,28.40
2018-07-20T07:13:55.782Z,28.95
2018-07-20T07:14:54.086Z,29.46
2018-07-20T07:15:54.080Z,29.30
2018-07-20T07:16:54.090Z,29.64
2018-07-20T07:17:54.131Z,30.76
2018-07-20T07:18:54.104Z,30.79
2018-07-20T07:19:54.126Z,30.94
2018-07-20T07:20:54.194Z,30.29
2018-07-20T07:21:54.157Z,30.27
2018-07-20T07:22:54.369Z,30.55
2018-07-20T07:23:54.157Z,30.82
2018-07-20T07:24:54.218Z,29.71
2018-07-20T07:25:54.233Z,29.21
2018-07-20T07:26:54.222Z,29.06
2018-07-20T07:27:54.217Z,30.00
2018-07-20T07:28:54.215Z,30.65
2018-07-20T07:29:54.225Z,30.51
2018-07-20T07:30:54.274Z,30.62
2018-07-20T07:31:54.260Z,30.47
2018-07-20T07:32:54.320Z,29.63
2018-07-20T07:33:54.271Z,29.45
2018-07-20T07:34:54.295Z,30.02
2018-07-20T07:35:54.376Z,30.89
2018-07-20T07:36:54.333Z,30.86
2018-07-20T07:37:54.461Z,31.16
2018-07-20T07:38:54.339Z,31.36
2018-07-20T07:39:54.375Z,31.28
2018-07-20T07:40:54.365Z,31.43
2018-07-20T07:41:54.399Z,31.68
2018-07-20T07:42:54.398Z,31.20
2018-07-20T07:43:54.441Z,30.69
2018-07-20T07:44:54.436Z,30.92
2018-07-20T07:45:54.457Z,31.41
2018-07-20T07:46:54.446Z,31.99
2018-07-20T07:47:54.465Z,31.96
2018-07-20T07:48:54.486Z,31.46
2018-07-20T07:49:54.508Z,31.20
2018-07-20T07:50:54.505Z,32.28
2018-07-20T07:51:54.531Z,31.69
2018-07-20T07:52:54.540Z,31.61
2018-07-20T07:53:54.548Z,30.77
2018-07-20T07:54:54.593Z,31.10
2018-07-20T07:55:54.568Z,32.01
2018-07-20T07:56:54.600Z,32.65
2018-07-20T07:57:54.593Z,32.66
2018-07-20T07:58:54.612Z,32.88
2018-07-20T07:59:54.618Z,32.65
2018-07-20T08:00:54.689Z,32.47
2018-07-20T08:01:54.669Z,32.57
2018-07-20T08:02:54.690Z,32.22
2018-07-20T08:03:54.691Z,32.47
2018-07-20T08:04:54.733Z,33.04
2018-07-20T08:05:56.341Z,33.54
2018-07-20T08:06:55.354Z,32.50
2018-07-20T08:07:54.757Z,32.75
2018-07-20T08:08:54.764Z,33.47
2018-07-20T08:09:54.887Z,34.12
2018-07-20T08:10:54.846Z,33.39
2018-07-20T08:11:54.898Z,33.56
2018-07-20T08:12:54.827Z,33.54
2018-07-20T08:13:54.849Z,33.84
2018-07-20T08:14:54.854Z,34.12
2018-07-20T08:15:54.963Z,33.66
2018-07-20T08:16:54.883Z,33.84
2018-07-20T08:17:54.903Z,33.91
2018-07-20T08:18:54.921Z,34.08
2018-07-20T08:19:54.995Z,34.46
2018-07-20T08:20:54.949Z,34.06
2018-07-20T08:21:54.969Z,34.13
2018-07-20T08:22:55.104Z,34.09
2018-07-20T08:23:55.022Z,33.41
2018-07-20T08:24:55.062Z,33.72
2018-07-20T08:25:55.050Z,34.05
2018-07-20T08:26:55.064Z,34.40
2018-07-20T08:27:55.861Z,34.80
2018-07-20T08:28:55.098Z,34.56
2018-07-20T08:29:55.102Z,34.21
2018-07-20T08:30:55.152Z,33.84
2018-07-20T08:31:55.178Z,33.95
2018-07-20T08:32:55.177Z,33.49
2018-07-20T08:33:55.211Z,33.32
2018-07-20T08:34:55.223Z,33.50
2018-07-20T08:35:55.366Z,33.34
2018-07-20T08:36:55.267Z,33.39
2018-07-20T08:37:55.302Z,33.49
2018-07-20T08:38:55.323Z,33.03
2018-07-20T08:39:55.313Z,32.89
2018-07-20T08:40:55.667Z,32.84
2018-07-20T08:41:55.364Z,33.59
2018-07-20T08:42:55.396Z,34.06
2018-07-20T08:43:55.381Z,34.66
2018-07-20T08:44:55.431Z,34.72
2018-07-20T08:45:56.292Z,34.88
2018-07-20T08:46:55.418Z,35.02
2018-07-20T08:47:55.465Z,34.99
2018-07-20T08:48:56.300Z,34.44
2018-07-20T08:49:55.508Z,34.17
2018-07-20T08:50:55.508Z,34.49
2018-07-20T08:51:55.548Z,34.52
2018-07-20T08:52:55.552Z,34.00
2018-07-20T08:53:55.566Z,34.32
2018-07-20T08:54:55.638Z,34.69
2018-07-20T08:55:55.680Z,34.78
2018-07-20T08:56:55.792Z,35.02
2018-07-20T08:57:55.616Z,35.19
2018-07-20T08:58:55.733Z,35.06
2018-07-20T08:59:55.727Z,35.22
2018-07-20T09:00:55.733Z,35.29
2018-07-20T09:01:55.697Z,35.63
2018-07-20T09:02:55.718Z,35.60
2018-07-20T09:03:55.757Z,34.91
2018-07-20T09:04:55.767Z,34.91
2018-07-20T09:05:56.296Z,34.64
2018-07-20T09:06:56.789Z,34.85
2018-07-20T09:07:55.815Z,35.14
2018-07-20T09:08:55.825Z,35.44
2018-07-20T09:09:55.870Z,35.03
2018-07-20T09:10:56.792Z,35.02
2018-07-20T09:11:55.898Z,34.99
2018-07-20T09:12:55.898Z,34.49
2018-07-20T09:13:56.078Z,33.90
2018-07-20T09:14:55.974Z,34.30
2018-07-20T09:15:56.000Z,34.69
2018-07-20T09:16:56.005Z,34.75
2018-07-20T09:17:55.995Z,35.00
2018-07-20T09:18:56.022Z,35.22
2018-07-20T09:19:56.059Z,35.29
2018-07-20T09:20:56.146Z,34.84
2018-07-20T09:21:56.904Z,34.39
2018-07-20T09:22:56.167Z,34.88
2018-07-20T09:23:56.165Z,34.73
2018-07-20T09:24:56.195Z,34.54
2018-07-20T09:25:56.172Z,34.96
2018-07-20T09:26:56.703Z,35.22
2018-07-20T09:27:56.365Z,35.38
2018-07-20T09:28:56.291Z,34.72
2018-07-20T09:42:24.143Z,35.53
2018-07-20T09:43:17.437Z,35.63
2018-07-20T09:44:19.581Z,35.92
2018-07-20T09:45:17.179Z,35.60
2018-07-20T09:46:17.662Z,35.81
2018-07-20T09:47:18.589Z,35.70
2018-07-20T09:48:17.392Z,35.82
2018-07-20T09:49:17.320Z,35.66
2018-07-20T09:50:17.361Z,35.18
2018-07-20T09:51:17.327Z,34.88
2018-07-20T09:52:17.404Z,35.00
2018-07-20T09:53:17.372Z,35.11
2018-07-20T09:54:17.374Z,35.63
2018-07-20T09:55:17.486Z,35.84
2018-07-20T09:56:17.459Z,35.77
2018-07-20T09:57:17.502Z,35.21
2018-07-20T09:58:17.547Z,35.22
2018-07-20T09:59:17.566Z,35.56
2018-07-20T10:00:17.489Z,34.37
2018-07-20T10:01:17.566Z,34.96
2018-07-20T10:02:17.606Z,35.07
2018-07-20T10:03:17.704Z,35.10
2018-07-20T10:04:18.605Z,35.22
2018-07-20T10:05:17.640Z,35.00
2018-07-20T10:06:17.640Z,34.72
2018-07-20T10:07:17.699Z,34.58
2018-07-20T10:08:17.755Z,34.70
2018-07-20T10:09:17.765Z,34.75
2018-07-20T10:10:17.774Z,35.21
2018-07-20T10:11:17.800Z,35.41
2018-07-20T10:12:17.847Z,35.75
2018-07-20T10:13:17.854Z,35.90
2018-07-20T10:14:17.996Z,35.38
2018-07-20T10:15:17.883Z,36.19
2018-07-20T10:16:17.909Z,36.38
2018-07-20T10:17:17.911Z,36.60
2018-07-20T10:18:17.969Z,36.72
2018-07-20T10:19:17.927Z,37.40
2018-07-20T10:20:17.993Z,37.29
2018-07-20T10:21:19.069Z,37.56
2018-07-20T10:22:17.989Z,37.63
2018-07-20T10:23:18.017Z,38.01
2018-07-20T10:24:18.202Z,37.98
2018-07-20T10:25:18.135Z,37.98
2018-07-20T10:26:18.083Z,37.63
2018-07-20T10:27:20.750Z,37.43
2018-07-20T10:28:18.191Z,36.38
2018-07-20T10:29:18.204Z,35.90
2018-07-20T10:30:18.236Z,35.38
2018-07-20T10:31:18.299Z,35.66
2018-07-20T10:32:18.259Z,36.03
2018-07-20T10:33:18.307Z,36.35
2018-07-20T10:34:21.406Z,36.54
2018-07-20T10:35:39.834Z,36.46
2018-07-20T10:36:19.778Z,36.08
2018-07-20T10:37:18.840Z,35.99
2018-07-20T10:38:19.628Z,35.63
2018-07-20T10:39:23.630Z,35.78
2018-07-20T10:40:20.319Z,35.11
2018-07-20T10:41:22.777Z,34.73
2018-07-20T10:42:18.811Z,35.26
2018-07-20T10:43:18.467Z,35.78
2018-07-20T10:44:18.572Z,36.28
2018-07-20T10:45:18.625Z,35.50
2018-07-20T10:46:18.674Z,34.72
2018-07-20T10:47:19.149Z,34.96
2018-07-20T10:48:18.581Z,35.50
2018-07-20T10:49:18.609Z,35.87
2018-07-20T10:50:18.622Z,35.52
2018-07-20T10:51:18.628Z,35.41
2018-07-20T10:52:18.691Z,34.97
2018-07-20T10:53:18.931Z,34.58
2018-07-20T10:54:18.703Z,34.25
2018-07-20T10:55:18.761Z,33.91
2018-07-20T10:56:18.757Z,33.71
2018-07-20T10:57:18.783Z,33.57
2018-07-20T10:58:21.067Z,33.53
2018-07-20T10:59:18.788Z,32.99
2018-07-20T11:00:18.808Z,33.01
2018-07-20T11:01:18.852Z,32.41
2018-07-20T11:02:18.862Z,32.22
2018-07-20T11:03:19.632Z,32.37
2018-07-20T11:04:18.898Z,32.48
2018-07-20T11:05:18.890Z,32.32
2018-07-20T11:06:19.156Z,32.35
2018-07-20T11:07:18.950Z,32.66
2018-07-20T11:08:18.972Z,33.12
2018-07-20T11:09:18.949Z,33.38
2018-07-20T11:10:19.050Z,33.28
2018-07-20T11:11:19.798Z,33.44
2018-07-20T11:12:19.016Z,33.69
2018-07-20T11:13:19.070Z,33.82
2018-07-20T11:14:19.067Z,34.08
2018-07-20T11:15:20.154Z,33.90
2018-07-20T11:16:19.094Z,32.96
2018-07-20T11:17:19.107Z,32.89
2018-07-20T11:18:19.086Z,33.15
2018-07-20T11:19:19.123Z,33.28
2018-07-20T11:20:19.183Z,33.50
2018-07-20T11:21:19.158Z,33.56
2018-07-20T11:22:19.168Z,33.03
2018-07-20T11:23:19.179Z,32.69
2018-07-20T11:24:19.288Z,32.65
2018-07-20T11:25:20.151Z,33.23
2018-07-20T11:26:20.737Z,33.49
2018-07-20T11:27:19.229Z,33.35
2018-07-20T11:28:19.356Z,32.72
2018-07-20T11:29:19.349Z,32.66
2018-07-20T11:30:19.305Z,32.38
2018-07-20T11:31:19.300Z,32.57
2018-07-20T11:32:19.328Z,32.75
2018-07-20T11:33:19.325Z,32.55
2018-07-20T11:34:19.341Z,32.04
2018-07-20T11:35:19.367Z,32.00
2018-07-20T11:36:19.336Z,31.73
2018-07-20T11:37:19.395Z,31.65
2018-07-20T11:38:19.390Z,32.03
2018-07-20T11:39:19.418Z,32.37
2018-07-20T11:40:20.155Z,32.94
2018-07-20T11:41:19.541Z,33.19
2018-07-20T11:42:20.429Z,33.41
2018-07-20T11:43:23.384Z,33.75
2018-07-20T11:44:22.497Z,33.50
2018-07-20T11:45:20.154Z,33.23
2018-07-20T11:46:20.157Z,33.07
2018-07-20T11:47:20.826Z,33.18
2018-07-20T11:48:41.050Z,33.11
2018-07-20T11:49:19.680Z,33.23
2018-07-20T11:50:19.583Z,33.49
2018-07-20T11:51:19.509Z,33.63
2018-07-20T11:52:19.580Z,33.49
2018-07-20T11:53:19.569Z,33.45
2018-07-20T11:54:19.565Z,33.53
2018-07-20T11:55:19.589Z,33.63
2018-07-20T11:56:19.568Z,33.79
2018-07-20T11:57:19.645Z,32.67
2018-07-20T11:58:19.688Z,33.11
2018-07-20T11:59:19.629Z,33.57
2018-07-20T12:00:19.659Z,33.76
2018-07-20T12:02:52.695Z,33.38
2018-07-20T12:03:52.142Z,33.57
2018-07-20T12:04:52.160Z,33.44
2018-07-20T12:05:53.061Z,33.54
2018-07-20T12:06:52.220Z,33.41
2018-07-20T12:07:52.206Z,33.01
2018-07-20T12:08:52.186Z,32.44
2018-07-20T12:09:58.978Z,32.21
2018-07-20T12:10:52.463Z,32.21
2018-07-20T12:11:52.505Z,32.40
2018-07-20T12:12:52.246Z,32.79
2018-07-20T12:13:52.272Z,33.15
2018-07-20T12:14:52.274Z,32.94
2018-07-20T12:15:52.406Z,33.19
2018-07-20T12:16:52.273Z,33.49
2018-07-20T12:17:53.833Z,33.53
2018-07-20T12:18:52.317Z,33.76
2018-07-20T12:19:52.331Z,33.94
2018-07-20T12:20:52.339Z,33.91
2018-07-20T12:21:52.349Z,33.71
2018-07-20T12:22:57.650Z,33.38
2018-07-20T12:23:53.400Z,33.31
2018-07-20T12:24:52.399Z,32.74
2018-07-20T12:25:52.417Z,32.85
2018-07-20T12:26:52.429Z,33.15
2018-07-20T12:27:52.448Z,33.28
2018-07-20T12:28:52.402Z,33.26
2018-07-20T12:29:52.483Z,33.28
2018-07-20T12:30:52.592Z,33.39
2018-07-20T12:31:52.688Z,33.49
2018-07-20T12:32:52.463Z,33.23
2018-07-20T12:33:59.467Z,32.81
2018-07-20T12:34:58.027Z,32.75
2018-07-20T12:35:52.505Z,32.70
2018-07-20T12:36:52.520Z,32.92
2018-07-20T12:37:52.549Z,31.99
2018-07-20T12:38:52.607Z,31.92
2018-07-20T12:39:52.572Z,31.69
2018-07-20T12:40:53.255Z,32.10
2018-07-20T12:41:52.592Z,32.23
2018-07-20T12:42:52.615Z,32.62
2018-07-20T12:43:52.615Z,32.78
2018-07-20T12:44:52.637Z,32.97
2018-07-20T12:46:00.967Z,32.89
2018-07-20T12:46:53.090Z,32.89
2018-07-20T12:47:52.671Z,32.89
2018-07-20T12:48:52.702Z,32.79
2018-07-20T12:49:52.714Z,32.62
2018-07-20T12:50:52.677Z,32.60
2018-07-20T12:51:52.683Z,32.45
2018-07-20T12:52:52.697Z,32.25
2018-07-20T12:53:52.731Z,32.19
2018-07-20T12:54:52.726Z,32.22
2018-07-20T12:55:52.697Z,32.29
2018-07-20T12:56:53.399Z,32.63
2018-07-20T12:57:55.382Z,32.63
2018-07-20T12:58:53.077Z,32.74
2018-07-20T12:59:52.790Z,32.66
2018-07-20T13:00:52.882Z,32.85
2018-07-20T13:01:52.804Z,32.92
2018-07-20T13:02:53.335Z,32.94
2018-07-20T13:03:52.930Z,32.67
2018-07-20T13:04:52.839Z,32.89
2018-07-20T13:05:52.827Z,33.15
2018-07-20T13:06:52.866Z,32.99
2018-07-20T13:07:52.820Z,32.75